Time;durP1;ratioP1;P1;durP2;ratioP2;P2;SDS_P1;SDS_P2;PMS_P1;PMS_P2;Temp;Humidity;BMP_temperature;BMP_pressure;BME280_temperature;BME280_humidity;BME280_pressure;Samples;Min_cycle;Max_cycle;Signal;HPM_P1;HPM_P2
2021/12/09 00:01:01;;;;;;;13.17;9.43;;;3.00;99.90;;;;;;5018212;28;20179;-87
2021/12/09 00:03:29;;;;;;;14.83;10.60;;;3.00;99.90;;;;;;5018006;28;20265;-88
2021/12/09 00:05:57;;;;;;;17.10;10.73;;;3.00;99.90;;;;;;5018084;28;20190;-88
2021/12/09 00:08:26;;;;;;;12.30;9.47;;;2.90;99.90;;;;;;5017979;28;20198;-87
2021/12/09 00:10:53;;;;;;;13.67;10.33;;;2.90;99.90;;;;;;5017421;28;20197;-88
2021/12/09 00:13:20;;;;;;;17.60;10.67;;;2.90;99.90;;;;;;5017973;28;20237;-87
2021/12/09 00:15:46;;;;;;;14.37;10.70;;;2.90;99.90;;;;;;5017804;28;20186;-87
2021/12/09 00:18:12;;;;;;;14.27;9.60;;;2.80;99.90;;;;;;5017813;28;20233;-87
2021/12/09 00:20:38;;;;;;;14.93;9.37;;;2.90;99.90;;;;;;5017486;28;20214;-87
2021/12/09 00:23:07;;;;;;;12.40;9.60;;;2.80;99.90;;;;;;5034603;28;20171;-87
2021/12/09 00:25:34;;;;;;;14.90;10.57;;;2.90;99.90;;;;;;5017640;28;20178;-88
2021/12/09 00:28:00;;;;;;;12.93;9.57;;;2.90;99.90;;;;;;5017513;28;20256;-87
2021/12/09 00:30:26;;;;;;;15.33;9.97;;;2.90;99.90;;;;;;5017264;28;20189;-87
2021/12/09 00:32:52;;;;;;;13.37;9.60;;;2.90;99.90;;;;;;5017272;28;20218;-88
2021/12/09 00:35:18;;;;;;;14.20;9.40;;;2.90;99.90;;;;;;5017210;28;20229;-88
2021/12/09 00:40:41;;;;;;;16.13;9.70;;;2.90;99.90;;;;;;5029128;28;20186;-87
2021/12/09 00:43:07;;;;;;;14.00;8.87;;;2.90;99.90;;;;;;5017483;28;20233;-88
2021/12/09 00:45:33;;;;;;;12.73;8.80;;;2.90;99.90;;;;;;5017083;28;20171;-88
2021/12/09 00:47:59;;;;;;;11.23;8.47;;;2.90;99.90;;;;;;5017518;28;20255;-87
2021/12/09 00:50:24;;;;;;;13.27;9.10;;;2.90;99.90;;;;;;5017269;28;20182;-88
2021/12/09 00:52:50;;;;;;;16.03;10.00;;;2.80;99.90;;;;;;5017451;28;20178;-87
2021/12/09 00:55:17;;;;;;;13.10;9.13;;;2.80;99.90;;;;;;5017524;28;20186;-88
2021/12/09 00:57:44;;;;;;;11.70;8.83;;;2.80;99.90;;;;;;5017160;28;20269;-88
2021/12/09 01:00:17;;;;;;;16.37;9.73;;;2.80;99.90;;;;;;5016991;28;20178;-88
2021/12/09 01:03:24;;;;;;;12.30;9.33;;;2.80;99.90;;;;;;5016702;28;20167;-88
2021/12/09 01:05:50;;;;;;;15.80;10.23;;;2.70;99.90;;;;;;5017243;28;20228;-88
2021/12/09 01:08:16;;;;;;;12.83;9.17;;;2.70;99.90;;;;;;5016196;28;20213;-88
2021/12/09 01:10:42;;;;;;;13.43;9.07;;;2.70;99.90;;;;;;5016614;28;20179;-87
2021/12/09 01:13:10;;;;;;;15.53;10.20;;;2.70;99.90;;;;;;5017154;28;20235;-88
2021/12/09 01:15:37;;;;;;;12.37;9.57;;;2.70;99.90;;;;;;5016530;28;20179;-88
2021/12/09 01:18:04;;;;;;;15.23;9.63;;;2.70;99.90;;;;;;5016322;28;20209;-88
2021/12/09 01:20:31;;;;;;;14.57;9.57;;;2.70;99.90;;;;;;5032980;28;20183;-87
2021/12/09 01:22:58;;;;;;;11.70;9.17;;;2.70;99.90;;;;;;5033063;28;20179;-88
2021/12/09 01:25:26;;;;;;;14.30;9.77;;;2.70;99.90;;;;;;5016989;28;20185;-88
2021/12/09 01:27:56;;;;;;;14.27;9.13;;;2.70;99.90;;;;;;5016047;28;20210;-87
2021/12/09 01:30:23;;;;;;;19.53;9.80;;;2.80;99.90;;;;;;5015830;28;20185;-87
2021/12/09 01:32:54;;;;;;;13.70;9.87;;;2.80;99.90;;;;;;5013073;28;20183;-88
2021/12/09 01:35:27;;;;;;;14.50;9.10;;;2.70;99.90;;;;;;5029245;28;20187;-88
2021/12/09 01:37:59;;;;;;;14.47;10.07;;;2.80;99.90;;;;;;5013262;28;20599;-87
2021/12/09 01:40:27;;;;;;;14.90;9.30;;;2.80;99.90;;;;;;5029624;28;20167;-88
2021/12/09 01:42:54;;;;;;;12.57;9.33;;;2.80;99.90;;;;;;5012804;28;20194;-88
2021/12/09 01:45:20;;;;;;;14.50;8.93;;;2.80;99.90;;;;;;5012237;28;20261;-87
2021/12/09 01:47:46;;;;;;;12.13;8.47;;;2.70;99.90;;;;;;5012701;28;20623;-87
2021/12/09 01:50:21;;;;;;;14.80;9.03;;;2.70;99.90;;;;;;5011968;28;20270;-88
2021/12/09 01:52:47;;;;;;;13.03;8.83;;;2.70;99.90;;;;;;5013297;28;20167;-87
2021/12/09 01:55:15;;;;;;;12.50;8.70;;;2.70;99.90;;;;;;5012832;28;20171;-87
2021/12/09 01:57:41;;;;;;;13.30;9.60;;;2.70;99.90;;;;;;5012530;28;20179;-88
2021/12/09 02:00:14;;;;;;;14.90;9.20;;;2.80;99.90;;;;;;5012300;28;20187;-87
2021/12/09 02:02:41;;;;;;;17.00;10.27;;;2.80;99.90;;;;;;5012933;28;20164;-88
2021/12/09 02:05:09;;;;;;;15.83;9.67;;;2.70;99.90;;;;;;5028815;28;20175;-88
2021/12/09 02:07:35;;;;;;;15.70;10.60;;;2.70;99.90;;;;;;5029119;28;20182;-88
2021/12/09 02:10:04;;;;;;;16.20;9.97;;;2.60;99.90;;;;;;5029084;28;20234;-87
2021/12/09 02:12:30;;;;;;;16.00;10.07;;;2.70;99.90;;;;;;5012487;28;20183;-88
2021/12/09 02:14:59;;;;;;;17.00;11.13;;;2.70;99.90;;;;;;5028853;28;20195;-88
2021/12/09 02:17:40;;;;;;;15.47;10.87;;;2.70;99.90;;;;;;5031460;28;20190;-88
2021/12/09 02:20:08;;;;;;;18.90;11.33;;;2.70;99.90;;;;;;5015888;28;20358;-87
2021/12/09 02:22:34;;;;;;;15.27;10.63;;;2.70;99.90;;;;;;5032330;28;20175;-88
2021/12/09 02:25:00;;;;;;;14.67;10.30;;;2.70;99.90;;;;;;5015708;28;20285;-87
2021/12/09 02:27:26;;;;;;;15.77;11.10;;;2.70;99.90;;;;;;5015485;28;20637;-88
2021/12/09 02:29:54;;;;;;;15.77;10.50;;;2.70;99.90;;;;;;5015296;28;20273;-87
2021/12/09 02:32:20;;;;;;;15.73;9.70;;;2.70;99.90;;;;;;5015513;28;20198;-87
2021/12/09 02:34:46;;;;;;;12.77;9.73;;;2.70;99.90;;;;;;5015702;28;20202;-87
2021/12/09 02:37:14;;;;;;;13.50;9.60;;;2.70;99.90;;;;;;5015896;28;20233;-87
2021/12/09 02:39:41;;;;;;;12.73;9.47;;;2.70;99.90;;;;;;5014997;28;20265;-87
2021/12/09 02:42:07;;;;;;;14.33;10.17;;;2.70;99.90;;;;;;5015660;28;20181;-87
2021/12/09 02:44:37;;;;;;;14.03;11.03;;;2.70;99.90;;;;;;5015078;28;20179;-88
2021/12/09 02:47:04;;;;;;;16.83;11.77;;;2.70;99.90;;;;;;5014821;28;20178;-87
2021/12/09 02:49:32;;;;;;;16.50;10.87;;;2.60;99.90;;;;;;5015497;28;20199;-88
2021/12/09 02:52:01;;;;;;;20.33;11.87;;;2.60;99.90;;;;;;5015328;28;20194;-87
2021/12/09 02:54:27;;;;;;;16.27;10.90;;;2.60;99.90;;;;;;5015194;28;20191;-87
2021/12/09 02:56:58;;;;;;;18.10;11.17;;;2.50;99.90;;;;;;5019472;28;20598;-88
2021/12/09 02:59:24;;;;;;;15.67;11.23;;;2.40;99.90;;;;;;5018962;28;20210;-87
2021/12/09 03:01:59;;;;;;;15.57;10.47;;;2.40;99.90;;;;;;5015839;28;20218;-87
2021/12/09 03:04:47;;;;;;;15.97;11.10;;;2.40;99.90;;;;;;5032301;28;20175;-87
2021/12/09 03:07:24;;;;;;;14.77;10.30;;;2.50;99.90;;;;;;5032221;28;20179;-87
2021/12/09 03:09:54;;;;;;;15.30;10.90;;;2.50;99.90;;;;;;5032471;28;20229;-87
2021/12/09 03:12:27;;;;;;;13.83;10.67;;;2.50;99.90;;;;;;5032389;28;20550;-87
2021/12/09 03:14:54;;;;;;;15.17;11.13;;;2.50;99.90;;;;;;5032187;28;20190;-87
2021/12/09 03:17:22;;;;;;;14.83;10.17;;;2.50;99.90;;;;;;5031868;28;20175;-87
2021/12/09 03:19:59;;;;;;;11.57;8.83;;;2.60;99.90;;;;;;5015211;28;20215;-87
2021/12/09 03:22:25;;;;;;;13.47;9.47;;;2.60;99.90;;;;;;5015472;28;20201;-87
2021/12/09 03:24:51;;;;;;;16.23;10.73;;;2.60;99.90;;;;;;5015435;28;20179;-87
2021/12/09 03:27:18;;;;;;;14.80;10.27;;;2.60;99.90;;;;;;5032070;28;20187;-87
2021/12/09 03:29:46;;;;;;;16.13;10.10;;;2.60;99.90;;;;;;5031449;28;20234;-88
2021/12/09 03:32:16;;;;;;;16.60;9.97;;;2.60;99.90;;;;;;5035568;28;20186;-87
2021/12/09 03:34:43;;;;;;;12.53;9.30;;;2.60;99.90;;;;;;5018481;28;20238;-87
2021/12/09 03:37:14;;;;;;;16.27;10.40;;;2.60;99.90;;;;;;5018498;28;20183;-87
2021/12/09 03:39:41;;;;;;;14.80;11.53;;;2.60;99.90;;;;;;5018129;28;20336;-87
2021/12/09 03:42:13;;;;;;;15.17;10.93;;;2.60;99.90;;;;;;5018482;28;20181;-87
2021/12/09 03:44:41;;;;;;;15.07;11.17;;;2.60;99.90;;;;;;5018261;28;20196;-87
2021/12/09 03:47:11;;;;;;;16.60;12.07;;;2.70;99.90;;;;;;5018143;28;20178;-87
2021/12/09 03:49:37;;;;;;;15.73;11.77;;;2.60;99.90;;;;;;5017714;28;20297;-87
2021/12/09 03:52:04;;;;;;;17.27;11.20;;;2.60;99.90;;;;;;5018461;28;20179;-87
2021/12/09 03:54:30;;;;;;;17.63;11.43;;;2.60;99.90;;;;;;5035160;28;20182;-87
2021/12/09 03:56:56;;;;;;;17.03;11.27;;;2.60;99.90;;;;;;5018111;28;20198;-87
2021/12/09 03:59:22;;;;;;;16.20;11.03;;;2.60;99.90;;;;;;5017979;28;20296;-87
2021/12/09 04:01:49;;;;;;;16.30;11.20;;;2.60;99.90;;;;;;5018124;28;20648;-87
2021/12/09 04:04:16;;;;;;;15.73;10.70;;;2.60;99.90;;;;;;5017642;28;20265;-87
2021/12/09 04:06:42;;;;;;;14.83;10.23;;;2.60;99.90;;;;;;5017324;28;20175;-87
2021/12/09 04:09:11;;;;;;;14.37;10.00;;;2.60;99.90;;;;;;5017592;28;20199;-86
2021/12/09 04:11:37;;;;;;;15.87;11.40;;;2.60;99.90;;;;;;5017847;28;20190;-87
2021/12/09 04:14:04;;;;;;;15.30;10.33;;;2.50;99.90;;;;;;5017858;28;20182;-87
2021/12/09 04:16:30;;;;;;;14.70;10.73;;;2.50;99.90;;;;;;5017873;28;20187;-87
2021/12/09 04:18:57;;;;;;;14.63;10.43;;;2.50;99.90;;;;;;5016444;28;20221;-87
2021/12/09 04:21:23;;;;;;;16.57;10.67;;;2.50;99.90;;;;;;5018145;28;20240;-87
2021/12/09 04:23:48;;;;;;;15.40;11.20;;;2.50;99.90;;;;;;5017932;28;20183;-87
2021/12/09 04:26:14;;;;;;;18.03;11.47;;;2.50;99.90;;;;;;5017445;28;20182;-87
2021/12/09 04:28:42;;;;;;;16.83;11.43;;;2.50;99.90;;;;;;5016322;28;20233;-87
2021/12/09 04:31:22;;;;;;;19.03;12.17;;;2.60;99.90;;;;;;5014091;28;20210;-88
2021/12/09 04:33:48;;;;;;;15.37;10.67;;;2.50;99.90;;;;;;5030780;28;20175;-87
2021/12/09 04:36:14;;;;;;;16.73;11.23;;;2.60;99.90;;;;;;5030528;28;20198;-87
2021/12/09 04:38:40;;;;;;;17.13;11.43;;;2.60;99.90;;;;;;5030073;28;20207;-88
2021/12/09 04:41:06;;;;;;;18.43;11.63;;;2.60;99.90;;;;;;5030585;28;20449;-87
2021/12/09 04:43:32;;;;;;;18.20;11.30;;;2.60;99.90;;;;;;5030474;28;20180;-87
2021/12/09 04:45:59;;;;;;;15.17;11.33;;;2.60;99.90;;;;;;5030511;28;20175;-87
2021/12/09 04:48:26;;;;;;;16.07;11.50;;;2.60;99.90;;;;;;5030080;28;20211;-87
2021/12/09 04:50:52;;;;;;;18.17;11.40;;;2.60;99.90;;;;;;5030574;28;20246;-87
2021/12/09 04:53:18;;;;;;;20.13;13.37;;;2.60;99.90;;;;;;5030264;28;20270;-87
2021/12/09 04:55:43;;;;;;;17.63;13.00;;;2.60;99.90;;;;;;5030740;28;20183;-87
2021/12/09 04:58:09;;;;;;;15.07;12.10;;;2.60;99.90;;;;;;5030386;28;20306;-87
2021/12/09 05:00:48;;;;;;;13.80;10.50;;;2.60;99.90;;;;;;5032522;28;20178;-86
2021/12/09 05:03:14;;;;;;;15.27;11.33;;;2.60;99.90;;;;;;5017206;28;20186;-87
2021/12/09 05:05:47;;;;;;;15.33;10.77;;;2.70;99.90;;;;;;5017234;28;20205;-87
2021/12/09 05:08:15;;;;;;;16.40;11.13;;;2.70;99.90;;;;;;5017222;28;20198;-88
2021/12/09 05:10:55;;;;;;;14.23;10.87;;;2.60;99.90;;;;;;5016482;28;20191;-87
2021/12/09 05:13:24;;;;;;;16.77;10.90;;;2.70;99.90;;;;;;5013572;28;20183;-87
2021/12/09 05:15:50;;;;;;;16.23;11.20;;;2.70;99.90;;;;;;5013385;28;20183;-87
2021/12/09 05:18:17;;;;;;;15.87;10.83;;;2.70;99.90;;;;;;5012271;28;20221;-87
2021/12/09 05:20:44;;;;;;;15.57;11.00;;;2.70;99.90;;;;;;5012977;28;20190;-87
2021/12/09 05:23:40;;;;;;;20.13;13.50;;;2.70;99.90;;;;;;5013143;28;20184;-87
2021/12/09 05:26:33;;;;;;;16.70;12.60;;;2.70;99.90;;;;;;5013358;28;20172;-87
2021/12/09 05:28:59;;;;;;;17.63;12.30;;;2.60;99.90;;;;;;5015147;28;20289;-87
2021/12/09 05:34:14;;;;;;;16.70;12.07;;;2.60;99.90;;;;;;5032751;28;20183;-87
2021/12/09 05:36:47;;;;;;;16.97;12.33;;;2.60;99.90;;;;;;5049195;28;20186;-87
2021/12/09 05:39:17;;;;;;;17.13;12.50;;;2.50;99.90;;;;;;5031923;28;20213;-87
2021/12/09 05:41:45;;;;;;;15.63;10.50;;;2.50;99.90;;;;;;5032376;28;20663;-87
2021/12/09 05:44:14;;;;;;;15.93;11.60;;;2.50;99.90;;;;;;5033052;28;20182;-87
2021/12/09 05:46:48;;;;;;;14.53;10.87;;;2.50;99.90;;;;;;5032649;28;20191;-87
2021/12/09 05:49:17;;;;;;;14.80;9.70;;;2.50;99.90;;;;;;5032671;28;20210;-87
2021/12/09 05:52:08;;;;;;;13.60;8.73;;;2.50;99.90;;;;;;5032660;28;20237;-87
2021/12/09 05:54:39;;;;;;;13.33;7.60;;;2.50;99.90;;;;;;5016078;28;20182;-87
2021/12/09 05:57:52;;;;;;;9.53;5.70;;;2.50;99.90;;;;;;5015992;28;20174;-87
2021/12/09 06:00:25;;;;;;;8.40;5.30;;;2.50;99.90;;;;;;5015901;28;20174;-87
2021/12/09 06:03:10;;;;;;;11.00;5.90;;;2.50;99.90;;;;;;5013932;28;20178;-88
2021/12/09 06:05:37;;;;;;;10.97;5.63;;;2.50;99.90;;;;;;5011240;28;20237;-88
2021/12/09 06:08:04;;;;;;;7.00;5.87;;;2.50;99.90;;;;;;5015498;28;20202;-88
2021/12/09 06:10:36;;;;;;;9.20;5.97;;;2.50;99.90;;;;;;5015666;28;20170;-87
2021/12/09 06:13:26;;;;;;;8.23;5.10;;;2.50;99.90;;;;;;5015865;28;20196;-88
2021/12/09 06:15:52;;;;;;;8.97;4.73;;;2.50;99.90;;;;;;5032055;28;20177;-87
2021/12/09 06:18:18;;;;;;;6.97;4.60;;;2.50;99.90;;;;;;5015854;28;20206;-88
2021/12/09 06:20:44;;;;;;;7.80;4.50;;;2.40;99.90;;;;;;5015885;28;20175;-87
2021/12/09 06:23:10;;;;;;;7.60;4.80;;;2.50;99.90;;;;;;5015937;28;20179;-87
2021/12/09 06:25:36;;;;;;;8.67;5.40;;;2.40;99.90;;;;;;5031981;28;20185;-87
2021/12/09 06:28:02;;;;;;;16.23;8.53;;;2.40;99.90;;;;;;5015782;28;20200;-87
2021/12/09 06:30:28;;;;;;;14.70;9.00;;;2.40;99.90;;;;;;5015475;28;20240;-87
2021/12/09 06:32:54;;;;;;;15.47;8.87;;;2.40;99.90;;;;;;5015579;28;20178;-89
2021/12/09 06:35:21;;;;;;;15.77;9.70;;;2.40;99.90;;;;;;5015385;28;20232;-87
2021/12/09 06:37:48;;;;;;;20.97;11.77;;;2.50;99.90;;;;;;5015503;28;20220;-87
2021/12/09 06:40:20;;;;;;;22.07;12.17;;;2.40;99.90;;;;;;5031995;28;20209;-87
2021/12/09 06:42:48;;;;;;;12.97;7.73;;;2.40;99.90;;;;;;5015506;28;20201;-87
2021/12/09 06:45:15;;;;;;;11.53;6.67;;;2.50;99.90;;;;;;5015543;28;20183;-87
2021/12/09 06:47:43;;;;;;;9.93;7.10;;;2.40;99.90;;;;;;5015514;28;20186;-87
2021/12/09 06:50:11;;;;;;;13.57;7.70;;;2.40;99.90;;;;;;5015324;28;20332;-88
2021/12/09 06:52:38;;;;;;;10.53;6.90;;;2.40;99.90;;;;;;5015593;28;20210;-87
2021/12/09 06:55:06;;;;;;;11.40;6.47;;;2.40;99.90;;;;;;5015223;28;20194;-87
2021/12/09 06:57:32;;;;;;;12.27;5.63;;;2.40;99.90;;;;;;5015134;28;20171;-87
2021/12/09 06:59:58;;;;;;;11.40;6.20;;;2.30;99.90;;;;;;5031645;28;20217;-88
2021/12/09 07:02:24;;;;;;;10.70;5.63;;;2.40;99.90;;;;;;5015365;28;20265;-87
2021/12/09 07:04:50;;;;;;;8.80;5.43;;;2.30;99.90;;;;;;5015360;28;20183;-88
2021/12/09 07:07:16;;;;;;;8.67;5.37;;;2.30;99.90;;;;;;5031905;28;20175;-87
2021/12/09 07:09:42;;;;;;;9.60;5.10;;;2.30;99.90;;;;;;5014974;28;20195;-87
2021/12/09 07:12:09;;;;;;;7.77;4.80;;;2.30;99.90;;;;;;5015113;28;20186;-86
2021/12/09 07:14:35;;;;;;;9.07;5.30;;;2.30;99.90;;;;;;5015180;28;20230;-88
2021/12/09 07:17:02;;;;;;;8.20;5.60;;;2.30;99.90;;;;;;5015161;28;20237;-87
2021/12/09 07:19:29;;;;;;;9.23;5.67;;;2.30;99.90;;;;;;5014837;28;20214;-87
2021/12/09 07:21:55;;;;;;;9.33;5.33;;;2.30;99.90;;;;;;5015079;28;20233;-87
2021/12/09 07:24:22;;;;;;;7.80;4.87;;;2.30;99.90;;;;;;5014549;28;20185;-87
2021/12/09 07:26:49;;;;;;;10.07;7.60;;;2.30;99.90;;;;;;5014813;28;20190;-87
2021/12/09 07:29:17;;;;;;;8.80;6.60;;;2.30;99.90;;;;;;5031131;28;20260;-88
2021/12/09 07:31:43;;;;;;;8.60;6.10;;;2.30;99.90;;;;;;5015287;28;20182;-88
2021/12/09 07:34:09;;;;;;;10.20;6.90;;;2.30;99.90;;;;;;5014675;28;20183;-87
2021/12/09 07:36:36;;;;;;;9.63;6.53;;;2.20;99.90;;;;;;5031235;28;20179;-87
2021/12/09 07:39:03;;;;;;;12.67;6.40;;;2.20;99.90;;;;;;5014161;28;20210;-87
2021/12/09 07:41:30;;;;;;;8.70;5.10;;;2.20;99.90;;;;;;5014540;28;20213;-87
2021/12/09 07:44:01;;;;;;;7.93;5.40;;;2.20;99.90;;;;;;5034886;28;20231;-83
2021/12/09 07:46:29;;;;;;;8.17;5.00;;;2.20;99.90;;;;;;5034988;28;20238;-87
2021/12/09 07:48:56;;;;;;;10.87;5.87;;;2.20;99.90;;;;;;5018092;28;20209;-87
2021/12/09 07:51:21;;;;;;;9.57;5.83;;;2.20;99.90;;;;;;5033919;28;20660;-87
2021/12/09 07:53:48;;;;;;;8.37;5.80;;;2.20;99.90;;;;;;5018703;28;20182;-87
2021/12/09 07:56:14;;;;;;;12.47;5.70;;;2.20;99.90;;;;;;5018328;28;20175;-88
2021/12/09 07:58:41;;;;;;;10.37;5.97;;;2.20;99.90;;;;;;5033767;28;20211;-87
2021/12/09 08:01:07;;;;;;;11.87;6.60;;;2.30;99.90;;;;;;5017798;28;20274;-87
2021/12/09 08:03:34;;;;;;;9.83;6.53;;;2.30;99.90;;;;;;5017906;28;20555;-87
2021/12/09 08:06:02;;;;;;;8.70;6.47;;;2.30;99.90;;;;;;5017727;28;20171;-87
2021/12/09 08:08:29;;;;;;;9.37;5.60;;;2.40;99.90;;;;;;5017611;28;20205;-88
2021/12/09 08:10:56;;;;;;;7.67;5.17;;;2.40;99.90;;;;;;5018169;28;20190;-89
2021/12/09 08:13:30;;;;;;;6.50;4.50;;;2.40;99.90;;;;;;5035015;28;20182;-87
2021/12/09 08:15:56;;;;;;;7.87;4.57;;;2.40;99.90;;;;;;5017926;28;20548;-87
2021/12/09 08:18:29;;;;;;;6.67;4.63;;;2.50;99.90;;;;;;5016910;28;20207;-87
2021/12/09 08:21:00;;;;;;;6.30;4.77;;;2.50;99.90;;;;;;5033733;28;20171;-87
2021/12/09 08:23:29;;;;;;;7.67;4.53;;;2.50;99.90;;;;;;5017092;28;20194;-87
2021/12/09 08:25:57;;;;;;;8.37;4.63;;;2.60;99.90;;;;;;5017369;28;20179;-88
2021/12/09 08:28:24;;;;;;;9.43;5.37;;;2.60;99.90;;;;;;5016876;28;20202;-88
2021/12/09 08:30:52;;;;;;;8.40;5.37;;;2.60;99.90;;;;;;5016722;28;20252;-87
2021/12/09 08:33:21;;;;;;;8.03;5.90;;;2.60;99.90;;;;;;5033551;28;20193;-87
2021/12/09 08:35:49;;;;;;;7.77;4.77;;;2.60;99.90;;;;;;5033614;28;20213;-87
2021/12/09 08:38:16;;;;;;;8.30;5.10;;;2.70;99.90;;;;;;5016554;28;20348;-87
2021/12/09 08:40:45;;;;;;;10.33;5.97;;;2.70;99.90;;;;;;5016999;28;20193;-88
2021/12/09 08:43:14;;;;;;;9.27;5.83;;;2.80;99.90;;;;;;5017209;28;20171;-87
2021/12/09 08:45:42;;;;;;;9.27;5.93;;;2.80;99.90;;;;;;5017597;28;20179;-88
2021/12/09 08:48:09;;;;;;;10.13;6.10;;;2.80;99.90;;;;;;5033181;28;20211;-88
2021/12/09 08:50:38;;;;;;;9.20;6.07;;;2.90;99.90;;;;;;5013356;28;20171;-87
2021/12/09 08:53:09;;;;;;;9.80;5.23;;;2.90;99.90;;;;;;5017741;28;20187;-87
2021/12/09 08:55:37;;;;;;;8.47;5.67;;;2.90;99.90;;;;;;5012578;28;20180;-87
2021/12/09 08:58:05;;;;;;;6.10;3.70;;;3.00;99.90;;;;;;5029471;28;20218;-87
2021/12/09 09:00:34;;;;;;;6.27;4.27;;;3.00;99.90;;;;;;5029646;28;20180;-87
2021/12/09 09:03:02;;;;;;;7.30;3.73;;;3.00;99.90;;;;;;5017114;28;20266;-88
2021/12/09 09:05:35;;;;;;;4.63;3.60;;;3.00;99.90;;;;;;5033138;28;20179;-87
2021/12/09 09:08:05;;;;;;;9.40;4.93;;;3.10;99.90;;;;;;5016919;28;20260;-88
2021/12/09 09:10:34;;;;;;;9.27;4.13;;;3.10;99.90;;;;;;5016505;28;20171;-88
2021/12/09 09:13:02;;;;;;;7.43;3.90;;;3.20;99.90;;;;;;5016980;28;20225;-88
2021/12/09 09:15:32;;;;;;;4.97;3.80;;;3.20;99.90;;;;;;5034039;28;20187;-88
2021/12/09 09:18:01;;;;;;;6.80;3.80;;;3.20;99.90;;;;;;5016795;28;20195;-88
2021/12/09 09:20:31;;;;;;;7.43;4.47;;;3.30;99.90;;;;;;5016281;28;20190;-87
2021/12/09 09:22:58;;;;;;;9.43;5.27;;;3.30;99.90;;;;;;5016382;28;20178;-88
2021/12/09 09:25:29;;;;;;;8.87;4.97;;;3.40;99.90;;;;;;5016073;28;20228;-88
2021/12/09 09:28:00;;;;;;;6.37;4.13;;;3.40;99.90;;;;;;5016945;28;20249;-88
2021/12/09 09:30:36;;;;;;;8.20;4.27;;;3.50;99.90;;;;;;5017076;28;20182;-88
2021/12/09 09:33:08;;;;;;;6.63;4.43;;;3.50;99.90;;;;;;5016281;28;20178;-88
2021/12/09 09:35:37;;;;;;;9.23;4.97;;;3.50;99.90;;;;;;5032955;28;20195;-88
2021/12/09 09:38:05;;;;;;;9.30;4.33;;;3.60;99.90;;;;;;5032719;28;20592;-88
2021/12/09 09:40:49;;;;;;;6.27;4.10;;;3.70;99.90;;;;;;5015933;28;20171;-88
2021/12/09 09:45:55;;;;;;;6.03;3.30;;;3.80;99.90;;;;;;5032677;28;20199;-88
2021/12/09 09:48:22;;;;;;;4.23;3.37;;;3.80;99.90;;;;;;5016260;28;20261;-88
2021/12/09 09:50:50;;;;;;;3.83;3.40;;;3.90;99.90;;;;;;5015954;28;20273;-88
2021/12/09 09:53:17;;;;;;;5.97;3.30;;;3.80;99.90;;;;;;5015917;28;20210;-88
2021/12/09 09:56:13;;;;;;;4.63;3.83;;;3.90;99.90;;;;;;5022278;28;20180;-88
2021/12/09 09:58:44;;;;;;;4.53;3.53;;;3.90;99.90;;;;;;5012416;28;20207;-88
2021/12/09 10:01:14;;;;;;;7.00;4.10;;;3.90;99.90;;;;;;5012392;28;20607;-88
2021/12/09 10:03:45;;;;;;;9.03;5.23;;;3.90;99.90;;;;;;5012431;28;20230;-88
2021/12/09 10:06:13;;;;;;;8.20;4.97;;;3.90;99.90;;;;;;5012938;28;20616;-88
2021/12/09 10:08:39;;;;;;;9.53;5.57;;;4.00;99.90;;;;;;5012215;28;20261;-88
2021/12/09 10:15:04;;;;;;;7.23;4.60;;;4.00;99.90;;;;;;5033526;28;20189;-88
2021/12/09 10:18:09;;;;;;;13.97;7.77;;;4.10;99.90;;;;;;5012347;28;20203;-88
2021/12/09 10:20:49;;;;;;;5.43;3.97;;;4.00;99.90;;;;;;5014907;28;20325;-88
2021/12/09 10:23:45;;;;;;;6.93;3.80;;;4.10;99.90;;;;;;5015945;28;20669;-87
2021/12/09 10:26:18;;;;;;;6.77;5.23;;;4.10;99.90;;;;;;5019314;28;20217;-88
2021/12/09 10:28:51;;;;;;;5.37;3.90;;;4.10;99.90;;;;;;5013200;28;20202;-88
2021/12/09 10:31:27;;;;;;;11.73;4.80;;;4.20;99.90;;;;;;5029771;28;20174;-88
2021/12/09 10:34:09;;;;;;;8.83;4.50;;;4.10;99.90;;;;;;5029914;28;20178;-88
2021/12/09 10:37:04;;;;;;;6.60;4.90;;;4.10;99.90;;;;;;4996293;28;20185;-88
2021/12/09 10:40:21;;;;;;;4.83;4.00;;;4.10;99.90;;;;;;4995266;28;20222;-88
2021/12/09 10:42:54;;;;;;;5.03;3.57;;;4.10;99.90;;;;;;5010785;28;20179;-88
2021/12/09 10:45:31;;;;;;;4.97;3.70;;;4.20;99.90;;;;;;5015194;28;20174;-88
2021/12/09 10:48:16;;;;;;;8.63;4.60;;;4.20;99.90;;;;;;5009043;28;20268;-88
2021/12/09 10:50:53;;;;;;;5.27;4.20;;;4.20;99.90;;;;;;5015683;28;20178;-88
2021/12/09 10:56:10;;;;;;;4.37;3.57;;;4.30;99.90;;;;;;5031935;28;20179;-88
2021/12/09 10:58:47;;;;;;;7.87;4.30;;;4.30;99.90;;;;;;5031406;28;20214;-88
2021/12/09 11:01:19;;;;;;;6.43;3.90;;;4.30;99.90;;;;;;5032070;28;20228;-88
2021/12/09 11:03:54;;;;;;;5.27;3.47;;;4.30;99.90;;;;;;5031641;28;20179;-87
2021/12/09 11:06:22;;;;;;;7.00;3.50;;;4.30;99.90;;;;;;5032193;28;20224;-87
2021/12/09 11:08:49;;;;;;;3.97;2.73;;;4.30;99.90;;;;;;5031304;28;20783;-90
2021/12/09 11:11:18;;;;;;;4.97;3.70;;;4.40;99.90;;;;;;5031134;28;20219;-88
2021/12/09 11:13:54;;;;;;;6.53;3.93;;;4.40;99.90;;;;;;5030323;28;20200;-88
2021/12/09 11:16:42;;;;;;;4.47;3.23;;;4.50;99.90;;;;;;5012458;28;20194;-88
2021/12/09 11:22:14;;;;;;;3.43;2.57;;;4.50;99.90;;;;;;5015387;28;20215;-88
2021/12/09 11:24:46;;;;;;;5.43;2.77;;;4.60;99.90;;;;;;5015702;28;20175;-88
2021/12/09 11:27:18;;;;;;;5.43;2.80;;;4.60;99.90;;;;;;5016147;28;20184;-88
2021/12/09 11:29:47;;;;;;;4.67;3.20;;;4.60;99.90;;;;;;4999786;28;20212;-88
2021/12/09 11:32:32;;;;;;;5.63;3.27;;;4.70;99.90;;;;;;5035011;28;20177;-88
2021/12/09 11:35:15;;;;;;;6.50;3.17;;;4.70;99.90;;;;;;5018056;28;20186;-88
2021/12/09 11:37:59;;;;;;;6.13;3.50;;;4.70;99.90;;;;;;5018347;28;20269;-88
2021/12/09 11:40:35;;;;;;;4.63;2.87;;;4.70;99.90;;;;;;5037394;28;20220;-88
2021/12/09 11:43:04;;;;;;;4.93;3.07;;;4.70;99.90;;;;;;5037849;28;20175;-88
2021/12/09 11:45:44;;;;;;;6.07;3.43;;;4.70;99.90;;;;;;5021353;28;20207;-88
2021/12/09 11:48:12;;;;;;;8.30;4.37;;;4.70;99.90;;;;;;5017910;28;20287;-87
2021/12/09 11:50:43;;;;;;;9.73;5.47;;;4.60;99.90;;;;;;5018183;28;20178;-88
2021/12/09 11:53:14;;;;;;;6.83;3.73;;;4.70;99.90;;;;;;5013057;28;20188;-88
2021/12/09 11:55:45;;;;;;;6.77;3.83;;;4.60;99.90;;;;;;5016809;28;20183;-88
2021/12/09 12:06:48;;;;;;;5.27;2.93;;;4.70;99.90;;;;;;5034035;28;20183;-88
2021/12/09 12:11:59;;;;;;;5.30;2.70;;;4.80;99.90;;;;;;5033824;28;20190;-88
2021/12/09 12:14:40;;;;;;;5.53;2.40;;;4.90;99.90;;;;;;5017480;28;20201;-88
2021/12/09 12:17:21;;;;;;;7.80;3.60;;;5.10;99.90;;;;;;5031247;28;20206;-87
2021/12/09 12:20:28;;;;;;;4.97;2.40;;;5.30;99.90;;;;;;5016941;28;20230;-88
2021/12/09 12:25:47;;;;;;;4.97;2.53;;;5.40;99.90;;;;;;5033847;28;20196;-88
2021/12/09 12:29:09;;;;;;;4.50;2.70;;;5.30;99.90;;;;;;5016927;28;20228;-88
2021/12/09 12:42:14;;;;;;;4.60;2.77;;;5.30;99.90;;;;;;5033583;28;20182;-89
2021/12/09 12:50:33;;;;;;;6.63;2.67;;;5.50;99.90;;;;;;5033467;28;20182;-87
2021/12/09 12:53:30;;;;;;;3.73;2.30;;;5.60;99.90;;;;;;5017057;28;20280;-88
2021/12/09 12:56:09;;;;;;;7.03;2.53;;;5.70;99.90;;;;;;5022910;28;20276;-87
2021/12/09 12:58:39;;;;;;;5.27;2.20;;;5.70;99.90;;;;;;5013827;28;20320;-87
2021/12/09 13:01:17;;;;;;;5.37;2.37;;;5.80;99.90;;;;;;5016912;28;20209;-88
2021/12/09 13:03:49;;;;;;;4.57;1.83;;;5.80;99.90;;;;;;5016869;28;20200;-88
2021/12/09 13:06:49;;;;;;;5.27;2.27;;;5.80;99.90;;;;;;5018389;28;20182;-88
2021/12/09 13:09:59;;;;;;;4.87;2.37;;;5.80;99.90;;;;;;5002984;28;20233;-87
2021/12/09 13:12:57;;;;;;;4.57;2.43;;;5.80;99.90;;;;;;5032693;28;20650;-88
2021/12/09 13:15:37;;;;;;;5.93;2.97;;;5.90;99.90;;;;;;5033239;28;20170;-88
2021/12/09 13:18:30;;;;;;;7.50;3.03;;;5.80;99.90;;;;;;5015897;28;20201;-88
2021/12/09 13:24:19;;;;;;;6.07;2.40;;;6.00;99.90;;;;;;5015536;28;20163;-88
2021/12/09 13:35:25;;;;;;;2.90;2.33;;;6.20;99.90;;;;;;5032147;28;20197;-88
2021/12/09 13:46:59;;;;;;;4.20;1.93;;;5.70;99.90;;;;;;5031074;28;20184;-87
2021/12/09 13:49:55;;;;;;;7.20;3.00;;;5.70;99.90;;;;;;5029226;28;20531;-88
2021/12/09 13:55:18;;;;;;;5.57;2.27;;;5.60;99.90;;;;;;5032102;28;20193;-87
2021/12/09 13:57:49;;;;;;;10.90;2.80;;;5.50;99.90;;;;;;5013704;28;20196;-87
2021/12/09 14:00:31;;;;;;;4.90;2.20;;;5.50;99.90;;;;;;5031202;28;20296;-87
2021/12/09 14:03:07;;;;;;;9.20;2.60;;;5.40;99.90;;;;;;5010203;28;20190;-88
2021/12/09 14:05:56;;;;;;;6.13;2.80;;;5.30;99.90;;;;;;5014636;28;20223;-88
2021/12/09 14:08:39;;;;;;;5.77;2.20;;;5.30;99.90;;;;;;5014419;28;20202;-88
2021/12/09 14:11:13;;;;;;;6.00;2.27;;;5.20;99.90;;;;;;5030214;28;20635;-87
2021/12/09 14:13:46;;;;;;;10.93;2.70;;;5.30;99.90;;;;;;5014861;28;20190;-87
2021/12/09 14:16:37;;;;;;;8.27;2.50;;;5.20;99.90;;;;;;5030355;28;20187;-87
2021/12/09 14:21:37;;;;;;;8.60;3.00;;;5.10;99.90;;;;;;5031233;28;20647;-87
2021/12/09 14:24:14;;;;;;;6.47;2.77;;;5.10;99.90;;;;;;5014732;28;20187;-87